Time;durP1;ratioP1;P1;durP2;ratioP2;P2;SDS_P1;SDS_P2;PMS_P1;PMS_P2;Temp;Humidity;BMP_temperature;BMP_pressure;BME280_temperature;BME280_humidity;BME280_pressure;Samples;Min_cycle;Max_cycle;Signal;HPM_P1;HPM_P2
2023/01/22 00:00:58;;;;;;;17.45;10.55;;;0.30;80.90;;;;;;5055731;28;20290;-69
2023/01/22 00:03:25;;;;;;;19.13;10.73;;;0.30;81.00;;;;;;5074076;28;20197;-68
2023/01/22 00:05:55;;;;;;;15.43;10.00;;;0.30;81.10;;;;;;5072968;28;20202;-69
2023/01/22 00:08:22;;;;;;;17.77;9.82;;;0.30;81.00;;;;;;5053810;28;20191;-68
2023/01/22 00:10:50;;;;;;;18.45;9.95;;;0.30;80.90;;;;;;5053631;28;20194;-70
2023/01/22 00:13:18;;;;;;;14.95;10.13;;;0.20;81.00;;;;;;5054127;28;20577;-69
2023/01/22 00:15:46;;;;;;;13.82;8.82;;;0.20;82.30;;;;;;5064898;28;20516;-69
2023/01/22 00:18:13;;;;;;;16.00;9.52;;;0.20;81.60;;;;;;5072867;28;20193;-69
2023/01/22 00:20:40;;;;;;;15.90;10.48;;;0.20;81.50;;;;;;5063298;28;20191;-69
2023/01/22 00:23:09;;;;;;;21.33;10.82;;;0.20;81.40;;;;;;5058744;28;20209;-69
2023/01/22 00:25:36;;;;;;;17.60;10.43;;;0.30;81.30;;;;;;5073580;28;20224;-68
2023/01/22 00:28:03;;;;;;;14.68;10.13;;;0.30;81.20;;;;;;5068921;28;20187;-69
2023/01/22 00:30:30;;;;;;;21.70;11.27;;;0.30;81.40;;;;;;5053669;28;20218;-68
2023/01/22 00:32:57;;;;;;;19.80;11.85;;;0.20;81.30;;;;;;5056276;28;20210;-68
2023/01/22 00:35:24;;;;;;;17.48;10.40;;;0.20;81.60;;;;;;5073364;28;20194;-69
2023/01/22 00:37:52;;;;;;;17.38;11.82;;;0.20;81.60;;;;;;5070684;28;20193;-68
2023/01/22 00:40:20;;;;;;;15.65;9.88;;;0.30;81.70;;;;;;5053343;28;20284;-70
2023/01/22 00:42:47;;;;;;;20.13;10.55;;;0.30;81.60;;;;;;5054832;28;20256;-69
2023/01/22 00:45:15;;;;;;;16.33;8.88;;;0.20;81.60;;;;;;5071978;28;20213;-68
2023/01/22 00:47:42;;;;;;;17.95;9.77;;;0.30;81.80;;;;;;5071971;28;20571;-69
2023/01/22 00:50:11;;;;;;;17.52;10.88;;;0.30;81.40;;;;;;5053384;28;20190;-69
2023/01/22 00:52:38;;;;;;;15.63;8.75;;;0.30;81.10;;;;;;5053413;28;20218;-69
2023/01/22 00:55:06;;;;;;;16.55;10.18;;;0.30;81.50;;;;;;5073000;28;20194;-69
2023/01/22 00:57:35;;;;;;;19.98;11.23;;;0.30;81.40;;;;;;5073003;28;21046;-68
2023/01/22 01:00:02;;;;;;;18.13;10.90;;;0.30;81.50;;;;;;5072261;28;20192;-68
2023/01/22 01:02:29;;;;;;;18.25;10.57;;;0.30;81.40;;;;;;5072933;28;20596;-69
2023/01/22 01:04:57;;;;;;;18.63;9.75;;;0.30;82.30;;;;;;5071868;28;20182;-68
2023/01/22 01:07:24;;;;;;;15.48;10.75;;;0.30;81.50;;;;;;5072706;28;20198;-68
2023/01/22 01:09:51;;;;;;;14.98;8.82;;;0.40;81.80;;;;;;5054328;28;20194;-68
2023/01/22 01:12:18;;;;;;;16.85;10.50;;;0.40;81.60;;;;;;5052716;28;20222;-67
2023/01/22 01:14:46;;;;;;;20.83;11.65;;;0.40;81.00;;;;;;5069235;28;20186;-69
2023/01/22 01:17:14;;;;;;;17.10;10.63;;;0.40;81.40;;;;;;5072673;28;20193;-69
2023/01/22 01:19:41;;;;;;;17.20;9.88;;;0.40;81.40;;;;;;5055042;28;20656;-69
2023/01/22 01:22:08;;;;;;;14.65;9.07;;;0.40;81.40;;;;;;5052530;28;20240;-68
2023/01/22 01:24:35;;;;;;;16.17;10.25;;;0.50;81.50;;;;;;5067473;28;20722;-68
2023/01/22 01:27:03;;;;;;;16.15;10.07;;;0.50;81.40;;;;;;5071931;28;20640;-68
2023/01/22 01:29:30;;;;;;;17.80;10.20;;;0.50;81.30;;;;;;5060795;28;20194;-68
2023/01/22 01:31:59;;;;;;;16.70;11.60;;;0.50;81.10;;;;;;5070563;28;20217;-68
2023/01/22 01:34:26;;;;;;;17.33;10.52;;;0.50;80.90;;;;;;5072046;28;20271;-68
2023/01/22 01:36:53;;;;;;;16.10;10.10;;;0.50;80.40;;;;;;5054536;28;20218;-69
2023/01/22 01:39:25;;;;;;;17.77;9.88;;;0.50;80.90;;;;;;5052432;28;20265;-67
2023/01/22 01:41:52;;;;;;;15.13;9.18;;;0.50;80.90;;;;;;5068727;28;20681;-68
2023/01/22 01:44:22;;;;;;;18.25;8.98;;;0.50;80.90;;;;;;5071752;28;20239;-68
2023/01/22 01:46:54;;;;;;;16.58;10.00;;;0.60;80.80;;;;;;5056162;28;20218;-67
2023/01/22 01:49:29;;;;;;;15.13;8.95;;;0.60;80.70;;;;;;5052118;28;20470;-69
2023/01/22 01:52:00;;;;;;;19.48;10.60;;;0.60;80.80;;;;;;5068007;28;20185;-68
2023/01/22 01:54:28;;;;;;;18.67;11.40;;;0.60;80.90;;;;;;5071546;28;20213;-69
2023/01/22 01:57:00;;;;;;;15.98;9.90;;;0.60;80.80;;;;;;5052237;28;20565;-68
2023/01/22 01:59:32;;;;;;;16.27;9.50;;;0.60;80.60;;;;;;5052040;28;20236;-69
2023/01/22 02:02:01;;;;;;;17.88;9.85;;;0.60;80.20;;;;;;5071188;28;20185;-69
2023/01/22 02:04:30;;;;;;;15.85;10.02;;;0.60;80.00;;;;;;5053422;28;20244;-68
2023/01/22 02:06:57;;;;;;;20.42;11.25;;;0.60;80.20;;;;;;5052071;28;20190;-67
2023/01/22 02:09:25;;;;;;;18.70;10.05;;;0.50;80.30;;;;;;5068943;28;20185;-69
2023/01/22 02:11:53;;;;;;;16.65;10.65;;;0.50;80.20;;;;;;5069613;28;20579;-69
2023/01/22 02:14:24;;;;;;;14.52;9.82;;;0.50;80.30;;;;;;5051799;28;20260;-67
2023/01/22 02:17:00;;;;;;;17.83;9.65;;;0.50;80.60;;;;;;5051984;28;20182;-68
2023/01/22 02:19:28;;;;;;;21.42;10.43;;;0.50;80.70;;;;;;5051858;28;20217;-69
2023/01/22 02:21:57;;;;;;;17.58;10.15;;;0.60;80.70;;;;;;5052366;28;20216;-69
2023/01/22 02:24:24;;;;;;;19.52;11.15;;;0.50;80.60;;;;;;5070187;28;20225;-69
2023/01/22 02:26:52;;;;;;;16.45;10.07;;;0.50;80.80;;;;;;5071360;28;20236;-69
2023/01/22 02:29:19;;;;;;;17.88;10.07;;;0.50;80.90;;;;;;5051762;28;20194;-69
2023/01/22 02:31:46;;;;;;;19.55;9.50;;;0.50;80.80;;;;;;5052592;28;20578;-69
2023/01/22 02:34:13;;;;;;;19.15;11.15;;;0.50;80.70;;;;;;5051554;28;20218;-68
2023/01/22 02:36:40;;;;;;;16.00;10.85;;;0.50;80.90;;;;;;5064970;28;20706;-69
2023/01/22 02:39:09;;;;;;;15.75;9.70;;;0.50;81.30;;;;;;5071699;28;20647;-69
2023/01/22 02:41:36;;;;;;;19.65;12.38;;;0.50;81.50;;;;;;5061299;28;20660;-69
2023/01/22 02:44:06;;;;;;;18.13;9.93;;;0.50;81.60;;;;;;5055135;28;20190;-68
2023/01/22 02:46:33;;;;;;;17.30;10.10;;;0.50;81.60;;;;;;5067019;28;20221;-68
2023/01/22 02:49:00;;;;;;;21.38;11.25;;;0.60;81.70;;;;;;5075359;28;20193;-68
2023/01/22 02:51:27;;;;;;;18.98;10.32;;;0.60;81.80;;;;;;5059976;28;20186;-68
2023/01/22 02:53:55;;;;;;;21.58;10.25;;;0.60;81.60;;;;;;5055016;28;20222;-68
2023/01/22 02:56:24;;;;;;;16.27;10.23;;;0.60;81.50;;;;;;5068443;28;20189;-68
2023/01/22 02:58:51;;;;;;;20.25;11.10;;;0.60;81.40;;;;;;5075086;28;20285;-68
2023/01/22 03:01:21;;;;;;;20.13;11.70;;;0.60;82.20;;;;;;5061638;28;20270;-68
2023/01/22 03:03:50;;;;;;;19.02;10.50;;;0.60;81.30;;;;;;5056551;28;20194;-69
2023/01/22 03:06:20;;;;;;;22.92;11.70;;;0.60;81.00;;;;;;5074480;28;20181;-69
2023/01/22 03:08:48;;;;;;;17.40;10.57;;;0.60;80.70;;;;;;5073358;28;20198;-69
2023/01/22 03:11:16;;;;;;;19.90;11.43;;;0.60;80.90;;;;;;5054928;28;20186;-68
2023/01/22 03:21:58;;;;;;;18.38;9.95;;;0.60;81.00;;;;;;5074512;28;20193;-68
2023/01/22 03:24:25;;;;;;;18.92;12.40;;;0.50;81.10;;;;;;5069760;28;20221;-68
2023/01/22 03:26:52;;;;;;;21.17;12.30;;;0.50;81.20;;;;;;5054663;28;20194;-68
2023/01/22 03:29:21;;;;;;;20.90;10.63;;;0.50;81.00;;;;;;5057547;28;20182;-68
2023/01/22 03:31:48;;;;;;;22.08;11.32;;;0.50;81.10;;;;;;5074266;28;20189;-69
2023/01/22 03:34:15;;;;;;;18.65;10.50;;;0.50;81.30;;;;;;5071707;28;20316;-69
2023/01/22 03:36:43;;;;;;;20.30;11.75;;;0.60;81.30;;;;;;5054782;28;20194;-68
2023/01/22 03:39:10;;;;;;;17.25;10.07;;;0.50;81.10;;;;;;5055283;28;20581;-68
2023/01/22 03:41:38;;;;;;;21.27;13.98;;;0.50;81.20;;;;;;5054634;28;20244;-68
2023/01/22 03:44:08;;;;;;;18.63;10.70;;;0.50;81.10;;;;;;5054299;28;20559;-69
2023/01/22 03:46:38;;;;;;;15.18;9.15;;;0.50;81.30;;;;;;5054322;28;20233;-68
2023/01/22 03:49:06;;;;;;;19.00;10.05;;;0.50;81.50;;;;;;5054342;28;20202;-68
2023/01/22 03:51:33;;;;;;;19.25;11.35;;;0.50;81.30;;;;;;5073907;28;20627;-68
2023/01/22 03:54:00;;;;;;;17.23;10.50;;;0.40;81.10;;;;;;5074253;28;20260;-68
2023/01/22 03:56:28;;;;;;;17.58;10.60;;;0.30;81.40;;;;;;5055480;28;20236;-68
2023/01/22 03:58:55;;;;;;;15.90;10.00;;;0.30;81.60;;;;;;5064796;28;20239;-68
2023/01/22 04:01:24;;;;;;;19.17;11.60;;;0.30;81.80;;;;;;5066167;28;20182;-68
2023/01/22 04:03:53;;;;;;;18.63;11.02;;;0.30;82.00;;;;;;5054148;28;20191;-68
2023/01/22 04:06:22;;;;;;;19.77;11.00;;;0.30;82.00;;;;;;5060036;28;20214;-69
2023/01/22 04:08:51;;;;;;;19.95;11.10;;;0.30;81.80;;;;;;5074027;28;20605;-69
2023/01/22 04:11:18;;;;;;;15.77;9.57;;;0.30;81.90;;;;;;5056920;28;20282;-68
2023/01/22 04:13:46;;;;;;;19.88;11.50;;;0.20;81.80;;;;;;5054036;28;20214;-68
2023/01/22 04:16:14;;;;;;;21.67;11.45;;;0.20;82.20;;;;;;5069075;28;20279;-68
2023/01/22 04:18:42;;;;;;;18.45;10.40;;;0.20;82.40;;;;;;5074116;28;20197;-68
2023/01/22 04:21:11;;;;;;;21.95;12.30;;;0.10;82.70;;;;;;5058221;28;20245;-68
2023/01/22 04:23:39;;;;;;;19.52;11.45;;;0.10;82.90;;;;;;5053863;28;20237;-68
2023/01/22 04:26:06;;;;;;;21.20;13.27;;;0.10;83.20;;;;;;5067922;28;20186;-69
2023/01/22 04:28:33;;;;;;;20.98;11.45;;;0.10;83.20;;;;;;5073736;28;20737;-68
2023/01/22 04:31:00;;;;;;;20.25;10.25;;;0.20;83.30;;;;;;5059554;28;20194;-68
2023/01/22 04:33:27;;;;;;;19.60;10.55;;;0.10;83.10;;;;;;5053649;28;20253;-68
2023/01/22 04:35:55;;;;;;;18.33;10.75;;;0.10;83.30;;;;;;5066001;28;20220;-68
2023/01/22 04:38:29;;;;;;;19.08;10.95;;;0.10;83.40;;;;;;5073586;28;20189;-68
2023/01/22 04:40:56;;;;;;;20.67;10.63;;;0.10;83.20;;;;;;5059976;28;20229;-68
2023/01/22 04:43:23;;;;;;;17.92;11.93;;;0.10;83.00;;;;;;5053234;28;20202;-68
2023/01/22 04:45:51;;;;;;;19.95;11.20;;;0.20;82.60;;;;;;5065074;28;20226;-68
2023/01/22 04:48:18;;;;;;;18.05;10.75;;;0.20;83.10;;;;;;5073310;28;20276;-68
2023/01/22 04:50:45;;;;;;;18.55;10.77;;;0.20;83.50;;;;;;5061672;28;20222;-69
2023/01/22 04:53:12;;;;;;;16.48;10.85;;;0.20;83.40;;;;;;5053457;28;20323;-68
2023/01/22 04:55:42;;;;;;;18.17;10.88;;;0.20;83.50;;;;;;5062828;28;20213;-68
2023/01/22 04:58:09;;;;;;;21.63;12.85;;;0.20;83.60;;;;;;5067658;28;20183;-68
2023/01/22 05:00:37;;;;;;;20.70;12.02;;;0.20;83.60;;;;;;5053142;28;20222;-68
2023/01/22 05:03:04;;;;;;;21.33;11.52;;;0.20;83.50;;;;;;5055990;28;20181;-68
2023/01/22 05:05:32;;;;;;;17.88;10.57;;;0.20;83.30;;;;;;5072986;28;20516;-68
2023/01/22 05:08:00;;;;;;;17.25;11.02;;;0.20;83.30;;;;;;5069529;28;20240;-69
2023/01/22 05:10:27;;;;;;;19.30;10.45;;;0.30;83.40;;;;;;5052978;28;20244;-68
2023/01/22 05:12:56;;;;;;;17.40;10.40;;;0.30;83.20;;;;;;5061711;28;20617;-68
2023/01/22 05:15:23;;;;;;;16.83;10.52;;;0.30;83.10;;;;;;5072610;28;20625;-68
2023/01/22 05:17:51;;;;;;;17.98;10.38;;;0.20;82.90;;;;;;5064642;28;20201;-67
2023/01/22 05:20:18;;;;;;;18.52;10.68;;;0.20;82.60;;;;;;5052880;28;20198;-67
2023/01/22 05:22:45;;;;;;;19.27;10.40;;;0.20;82.70;;;;;;5059168;28;20217;-68
2023/01/22 05:25:13;;;;;;;20.48;11.15;;;0.20;82.80;;;;;;5072899;28;20194;-67
2023/01/22 05:27:40;;;;;;;17.80;10.27;;;0.30;82.60;;;;;;5066805;28;20232;-68
2023/01/22 05:30:11;;;;;;;20.95;11.30;;;0.20;82.30;;;;;;5052784;28;20190;-67
2023/01/22 05:32:38;;;;;;;17.63;10.07;;;0.20;82.40;;;;;;5057930;28;20208;-68
2023/01/22 05:35:06;;;;;;;18.42;11.52;;;0.20;82.10;;;;;;5072378;28;20268;-68
2023/01/22 05:37:33;;;;;;;15.48;10.15;;;0.10;81.80;;;;;;5067733;28;20195;-68
2023/01/22 05:40:02;;;;;;;17.98;10.80;;;0.10;82.10;;;;;;5052684;28;20523;-67
2023/01/22 05:42:29;;;;;;;15.52;8.50;;;0.10;81.80;;;;;;5056158;28;20269;-68
2023/01/22 05:44:56;;;;;;;20.30;12.05;;;0.00;81.50;;;;;;5071163;28;20256;-67
2023/01/22 05:47:24;;;;;;;18.50;10.63;;;0.00;81.70;;;;;;5069291;28;20770;-68
2023/01/22 05:49:51;;;;;;;20.10;10.82;;;0.00;81.60;;;;;;5052060;28;20657;-67
2023/01/22 05:52:19;;;;;;;18.13;10.77;;;0.00;81.90;;;;;;5054255;28;20226;-68
2023/01/22 05:54:47;;;;;;;17.10;10.18;;;0.00;82.00;;;;;;5072210;28;20236;-68
2023/01/22 05:57:14;;;;;;;18.83;10.52;;;0.00;82.50;;;;;;5070607;28;20193;-68
2023/01/22 05:59:41;;;;;;;18.80;11.52;;;-0.10;82.60;;;;;;5052504;28;20233;-68
2023/01/22 06:02:09;;;;;;;25.10;12.05;;;-0.10;82.50;;;;;;5052780;28;20229;-68
2023/01/22 06:04:37;;;;;;;19.65;11.75;;;-0.20;82.40;;;;;;5072003;28;20552;-67
2023/01/22 06:07:04;;;;;;;20.25;10.60;;;-0.20;82.70;;;;;;5072227;28;20247;-67
2023/01/22 06:09:32;;;;;;;18.60;10.65;;;-0.20;83.30;;;;;;5071515;28;20205;-68
2023/01/22 06:11:58;;;;;;;23.67;12.38;;;-0.20;83.60;;;;;;5072102;28;20599;-68
2023/01/22 06:14:25;;;;;;;22.65;12.57;;;-0.10;83.40;;;;;;5058455;28;20222;-67
2023/01/22 06:16:52;;;;;;;20.02;11.00;;;-0.10;83.80;;;;;;5055287;28;20226;-68
2023/01/22 06:19:20;;;;;;;20.52;10.40;;;-0.10;83.50;;;;;;5072982;28;20189;-68
2023/01/22 06:21:49;;;;;;;16.40;10.70;;;-0.10;83.50;;;;;;5076243;28;20190;-68
2023/01/22 06:24:16;;;;;;;24.02;12.98;;;-0.10;83.60;;;;;;5063091;28;20201;-67
2023/01/22 06:26:43;;;;;;;16.88;9.98;;;-0.10;83.20;;;;;;5055952;28;20195;-69
2023/01/22 06:29:10;;;;;;;19.00;10.45;;;-0.10;83.20;;;;;;5055790;28;20251;-68
2023/01/22 06:31:38;;;;;;;21.90;12.70;;;-0.20;83.30;;;;;;5056169;28;20198;-67
2023/01/22 06:34:05;;;;;;;22.73;12.45;;;-0.20;83.40;;;;;;5067872;28;20255;-68
2023/01/22 06:36:32;;;;;;;19.83;11.70;;;-0.30;83.40;;;;;;5075855;28;20735;-67
2023/01/22 06:39:01;;;;;;;25.83;12.13;;;-0.20;82.60;;;;;;5073734;28;20644;-68
2023/01/22 06:41:28;;;;;;;22.08;12.93;;;-0.30;82.80;;;;;;5075834;28;20246;-68
2023/01/22 06:43:55;;;;;;;16.20;11.00;;;-0.30;83.30;;;;;;5063663;28;20655;-68
2023/01/22 06:46:24;;;;;;;18.90;11.05;;;-0.30;83.20;;;;;;5055374;28;20218;-68
2023/01/22 06:48:51;;;;;;;23.50;12.02;;;-0.40;83.00;;;;;;5065263;28;20194;-68
2023/01/22 06:51:18;;;;;;;22.98;11.75;;;-0.50;83.00;;;;;;5075488;28;20194;-67
2023/01/22 06:53:46;;;;;;;23.13;10.70;;;-0.50;83.20;;;;;;5065310;28;20194;-67
2023/01/22 06:56:14;;;;;;;19.30;10.55;;;-0.50;83.20;;;;;;5055543;28;20230;-68
2023/01/22 06:58:42;;;;;;;19.52;12.02;;;-0.50;82.80;;;;;;5063722;28;20205;-67
2023/01/22 07:01:10;;;;;;;23.13;11.18;;;-0.50;82.40;;;;;;5075463;28;20186;-67
2023/01/22 07:03:37;;;;;;;19.15;10.65;;;-0.60;82.50;;;;;;5066505;28;20541;-68
2023/01/22 07:06:05;;;;;;;22.00;13.63;;;-0.60;82.10;;;;;;5055450;28;20603;-67
2023/01/22 07:08:34;;;;;;;17.98;12.05;;;-0.60;82.00;;;;;;5061895;28;20182;-69
2023/01/22 07:11:02;;;;;;;26.60;13.30;;;-0.60;82.00;;;;;;5075472;28;20219;-70
2023/01/22 07:13:31;;;;;;;18.33;11.57;;;-0.60;81.90;;;;;;5067812;28;20526;-71
2023/01/22 07:16:01;;;;;;;17.80;9.15;;;-0.60;82.00;;;;;;5055261;28;20220;-70
2023/01/22 07:18:29;;;;;;;15.02;8.63;;;-0.60;81.70;;;;;;5060992;28;20274;-71
2023/01/22 07:20:59;;;;;;;18.23;10.13;;;-0.60;81.30;;;;;;5075155;28;20194;-71
2023/01/22 07:23:26;;;;;;;21.05;11.75;;;-0.60;80.60;;;;;;5068234;28;20186;-70
2023/01/22 07:25:53;;;;;;;20.35;11.98;;;-0.70;80.10;;;;;;5054401;28;20194;-70
2023/01/22 07:28:20;;;;;;;21.15;11.70;;;-0.70;79.50;;;;;;5060080;28;20186;-71
2023/01/22 07:30:50;;;;;;;20.20;12.65;;;-0.80;80.00;;;;;;5075025;28;20189;-70
2023/01/22 07:33:17;;;;;;;20.30;11.50;;;-0.80;79.30;;;;;;5060269;28;20198;-70
2023/01/22 07:35:45;;;;;;;16.15;8.90;;;-0.80;79.90;;;;;;5054747;28;20573;-71
2023/01/22 07:38:12;;;;;;;15.15;8.25;;;-0.90;80.10;;;;;;5062300;28;20281;-70
2023/01/22 07:40:39;;;;;;;16.85;9.45;;;-0.90;80.00;;;;;;5054575;28;20194;-71
2023/01/22 07:43:07;;;;;;;14.63;8.73;;;-0.90;80.70;;;;;;5069657;28;20177;-71
2023/01/22 07:45:35;;;;;;;19.88;12.38;;;-0.90;80.10;;;;;;5060236;28;20309;-70
2023/01/22 07:48:06;;;;;;;20.95;10.07;;;-1.00;80.00;;;;;;5070077;28;20194;-70
2023/01/22 07:50:44;;;;;;;19.83;11.68;;;-1.20;79.60;;;;;;5071745;28;20195;-70
2023/01/22 07:53:12;;;;;;;18.85;11.77;;;-1.20;79.40;;;;;;5065324;28;20201;-71
2023/01/22 07:55:40;;;;;;;18.13;11.95;;;-1.20;78.20;;;;;;5054284;28;20224;-70
2023/01/22 07:58:11;;;;;;;22.20;14.15;;;-1.20;78.50;;;;;;5057654;28;20259;-72
2023/01/22 08:00:38;;;;;;;20.30;11.40;;;-1.10;78.80;;;;;;5065801;28;20671;-70
2023/01/22 08:03:14;;;;;;;24.40;11.95;;;-1.10;78.80;;;;;;5068976;28;20190;-70
2023/01/22 08:05:41;;;;;;;18.52;11.70;;;-1.00;78.90;;;;;;5055400;28;20200;-71
2023/01/22 08:08:13;;;;;;;23.60;13.60;;;-0.90;78.80;;;;;;5053987;28;20190;-71
2023/01/22 08:10:41;;;;;;;23.30;12.43;;;-0.90;79.10;;;;;;5053866;28;20248;-70
2023/01/22 08:13:08;;;;;;;19.55;10.70;;;-0.80;79.20;;;;;;5069190;28;20259;-70
2023/01/22 08:15:35;;;;;;;25.40;13.90;;;-0.70;78.30;;;;;;5071219;28;20218;-71
2023/01/22 08:18:03;;;;;;;26.42;14.65;;;-0.80;77.40;;;;;;5068350;28;20240;-70
2023/01/22 08:20:34;;;;;;;28.85;17.02;;;-0.70;78.40;;;;;;5054798;28;20201;-71
2023/01/22 08:23:01;;;;;;;40.45;21.25;;;-0.60;79.30;;;;;;5057723;28;20213;-70
2023/01/22 08:25:29;;;;;;;28.15;16.40;;;-0.60;79.20;;;;;;5059855;28;20198;-71
2023/01/22 08:27:56;;;;;;;28.75;16.98;;;-0.60;79.60;;;;;;5070218;28;20190;-70
2023/01/22 08:30:23;;;;;;;31.45;16.15;;;-0.60;79.70;;;;;;5056792;28;20182;-72
2023/01/22 08:32:51;;;;;;;24.45;14.52;;;-0.50;78.90;;;;;;5071027;28;20714;-70
2023/01/22 08:35:18;;;;;;;25.67;13.77;;;-0.60;79.50;;;;;;5067748;28;20985;-71
2023/01/22 08:37:46;;;;;;;24.75;15.65;;;-0.50;80.50;;;;;;5069888;28;20198;-71
2023/01/22 08:40:14;;;;;;;30.30;17.95;;;-0.40;80.80;;;;;;5055791;28;20186;-73
2023/01/22 08:42:42;;;;;;;27.80;16.33;;;-0.40;80.80;;;;;;5053786;28;20190;-71
2023/01/22 08:45:10;;;;;;;28.23;16.63;;;-0.30;81.10;;;;;;5057150;28;20352;-70
2023/01/22 08:47:37;;;;;;;31.17;16.10;;;-0.20;80.50;;;;;;5056886;28;20194;-70
2023/01/22 08:50:05;;;;;;;24.67;17.08;;;-0.10;80.80;;;;;;5055041;28;20240;-71
2023/01/22 08:52:32;;;;;;;23.25;15.73;;;0.00;81.10;;;;;;5052720;28;20190;-71
2023/01/22 08:55:01;;;;;;;28.30;14.38;;;0.20;80.70;;;;;;5056158;28;20214;-70
2023/01/22 08:57:28;;;;;;;28.05;16.63;;;0.40;80.00;;;;;;5069913;28;20262;-70
2023/01/22 08:59:55;;;;;;;24.33;14.32;;;0.50;78.70;;;;;;5058650;28;20182;-71
2023/01/22 09:02:23;;;;;;;29.17;17.35;;;0.50;78.00;;;;;;5053147;28;20236;-70
2023/01/22 09:04:50;;;;;;;30.55;18.83;;;0.70;79.50;;;;;;5059554;28;21072;-70
2023/01/22 09:07:17;;;;;;;28.17;17.08;;;0.90;79.00;;;;;;5050464;28;20733;-70
2023/01/22 09:09:44;;;;;;;28.58;16.95;;;1.00;78.80;;;;;;5064397;28;20669;-71
2023/01/22 09:12:13;;;;;;;26.08;13.73;;;1.20;78.30;;;;;;5069668;28;20229;-70
2023/01/22 09:14:40;;;;;;;24.13;13.50;;;1.40;78.80;;;;;;5065738;28;20190;-71
2023/01/22 09:17:07;;;;;;;23.17;13.98;;;1.50;78.00;;;;;;5053235;28;20249;-72
2023/01/22 09:19:34;;;;;;;20.33;13.43;;;1.70;77.00;;;;;;5056494;28;20182;-71
2023/01/22 09:22:05;;;;;;;26.83;15.55;;;1.90;75.70;;;;;;5067382;28;20264;-71
2023/01/22 09:24:32;;;;;;;22.92;14.65;;;2.10;74.60;;;;;;5068257;28;20197;-70
2023/01/22 09:27:00;;;;;;;24.83;14.68;;;2.20;72.80;;;;;;5057829;28;20573;-77
2023/01/22 09:29:29;;;;;;;22.63;13.20;;;2.50;72.40;;;;;;5060427;28;20190;-71
2023/01/22 09:31:56;;;;;;;24.35;13.93;;;2.90;72.70;;;;;;5058393;28;20202;-69
2023/01/22 09:34:24;;;;;;;22.45;14.32;;;3.30;70.10;;;;;;5062475;28;20194;-70
2023/01/22 09:36:55;;;;;;;20.58;14.15;;;3.70;68.60;;;;;;5058989;28;20226;-71
2023/01/22 09:39:23;;;;;;;22.27;13.60;;;4.10;66.70;;;;;;5051925;28;20195;-71
2023/01/22 09:41:54;;;;;;;23.63;14.90;;;4.60;66.30;;;;;;5053101;28;20199;-71
2023/01/22 09:44:26;;;;;;;19.77;13.32;;;5.20;63.20;;;;;;5050932;28;20264;-71
2023/01/22 09:46:58;;;;;;;20.13;13.80;;;5.50;60.30;;;;;;5046336;28;20255;-70
2023/01/22 09:49:31;;;;;;;18.90;12.63;;;5.70;59.30;;;;;;5049063;28;20190;-70
2023/01/22 09:52:01;;;;;;;18.85;12.88;;;5.70;58.40;;;;;;5038900;28;20245;-72
2023/01/22 09:54:34;;;;;;;17.55;12.73;;;6.20;59.00;;;;;;5041292;28;20214;-70
2023/01/22 09:57:04;;;;;;;20.15;14.15;;;6.80;56.60;;;;;;5031082;28;20738;-70
2023/01/22 09:59:37;;;;;;;23.58;15.68;;;6.90;54.80;;;;;;5031181;28;20234;-71
2023/01/22 10:02:20;;;;;;;18.63;14.15;;;7.20;54.00;;;;;;5047897;28;20260;-70
2023/01/22 10:04:52;;;;;;;24.42;15.60;;;7.30;55.00;;;;;;5046342;28;20191;-70
2023/01/22 10:07:24;;;;;;;20.63;15.60;;;7.50;53.00;;;;;;5039960;28;20249;-70
2023/01/22 10:10:01;;;;;;;22.48;13.20;;;7.40;52.50;;;;;;5031781;28;20195;-70
2023/01/22 10:12:29;;;;;;;18.27;12.70;;;7.50;53.20;;;;;;5040204;28;20209;-71
2023/01/22 10:14:56;;;;;;;19.08;13.35;;;7.90;54.50;;;;;;5048081;28;20199;-71
2023/01/22 10:17:30;;;;;;;18.70;12.60;;;8.40;52.50;;;;;;5040499;28;20214;-70
2023/01/22 10:20:00;;;;;;;22.15;14.88;;;8.60;50.90;;;;;;5030941;28;20190;-71
2023/01/22 10:22:28;;;;;;;17.48;13.55;;;8.70;51.40;;;;;;5041774;28;20257;-70
2023/01/22 10:24:56;;;;;;;17.17;12.82;;;8.70;51.10;;;;;;5042351;28;20663;-70
2023/01/22 10:27:32;;;;;;;22.55;13.93;;;8.70;50.70;;;;;;5032200;28;20198;-70
2023/01/22 10:30:03;;;;;;;20.25;14.00;;;8.50;49.50;;;;;;5030350;28;20219;-70
2023/01/22 10:32:32;;;;;;;15.00;12.35;;;8.30;51.10;;;;;;5037169;28;20230;-71
2023/01/22 10:35:06;;;;;;;19.02;12.68;;;8.30;50.80;;;;;;5047367;28;20199;-70
2023/01/22 10:37:44;;;;;;;19.13;11.77;;;8.20;49.50;;;;;;5044198;28;20291;-70
2023/01/22 10:40:21;;;;;;;19.38;13.30;;;8.00;49.70;;;;;;5033484;28;20714;-71
2023/01/22 10:42:59;;;;;;;19.75;12.27;;;7.90;50.20;;;;;;5043872;28;20250;-71
2023/01/22 10:45:26;;;;;;;18.02;11.20;;;7.90;50.70;;;;;;5045328;28;20338;-70
2023/01/22 10:48:14;;;;;;;17.48;12.35;;;7.90;50.40;;;;;;5067606;28;20282;-71
2023/01/22 10:50:42;;;;;;;17.10;12.40;;;8.30;50.40;;;;;;5050589;28;20196;-71
2023/01/22 10:53:20;;;;;;;17.13;15.00;;;8.60;49.50;;;;;;5064065;28;20296;-70
2023/01/22 10:55:56;;;;;;;16.02;11.70;;;8.60;48.80;;;;;;5050722;28;20227;-70
2023/01/22 10:58:26;;;;;;;16.60;12.50;;;9.00;48.40;;;;;;5054542;28;20220;-70
2023/01/22 11:01:00;;;;;;;19.83;13.40;;;9.60;46.80;;;;;;5061620;28;20621;-71
2023/01/22 11:03:33;;;;;;;17.63;12.43;;;10.20;46.00;;;;;;5069530;28;20224;-71
2023/01/22 11:06:05;;;;;;;16.33;12.45;;;11.20;44.40;;;;;;5071200;28;20197;-71
2023/01/22 11:08:47;;;;;;;16.45;11.90;;;11.30;41.70;;;;;;5058400;28;20288;-72
2023/01/22 11:11:16;;;;;;;18.52;13.02;;;10.90;40.40;;;;;;5055727;28;20222;-71
2023/01/22 11:13:52;;;;;;;16.20;11.60;;;10.30;40.70;;;;;;5064787;28;20296;-71
2023/01/22 11:16:22;;;;;;;21.15;15.35;;;9.50;42.50;;;;;;5053236;28;20231;-71
2023/01/22 11:18:55;;;;;;;16.58;14.05;;;8.90;44.20;;;;;;5057681;28;20226;-70
2023/01/22 11:21:29;;;;;;;15.55;10.63;;;8.60;45.10;;;;;;5052943;28;20672;-71
2023/01/22 11:24:09;;;;;;;18.55;13.75;;;8.30;44.70;;;;;;5069905;28;20199;-70
2023/01/22 11:26:59;;;;;;;19.85;13.93;;;7.90;45.70;;;;;;5054805;28;20196;-73
2023/01/22 11:29:56;;;;;;;22.52;14.93;;;7.20;46.10;;;;;;5051635;28;20191;-72
2023/01/22 11:32:50;;;;;;;19.92;14.27;;;6.80;48.00;;;;;;5056627;28;20223;-75
2023/01/22 11:35:26;;;;;;;19.92;13.00;;;6.60;49.90;;;;;;5069362;28;20583;-72
2023/01/22 11:38:04;;;;;;;20.63;14.40;;;6.50;51.40;;;;;;5055385;28;20182;-71
2023/01/22 11:40:34;;;;;;;21.08;13.38;;;6.40;52.10;;;;;;5063068;28;20556;-71
2023/01/22 11:43:23;;;;;;;20.83;13.88;;;6.50;53.20;;;;;;5067879;28;20189;-73
2023/01/22 11:46:19;;;;;;;24.23;14.10;;;6.70;52.60;;;;;;5063592;28;20214;-73
2023/01/22 11:48:57;;;;;;;21.83;13.80;;;7.30;53.20;;;;;;5060396;28;20180;-72
2023/01/22 11:51:32;;;;;;;16.73;13.43;;;8.60;51.20;;;;;;5064103;28;20194;-71
2023/01/22 11:54:25;;;;;;;17.20;12.43;;;9.50;48.30;;;;;;5056117;28;20249;-72
2023/01/22 11:57:08;;;;;;;18.63;11.73;;;10.00;45.40;;;;;;5053502;28;20228;-72
2023/01/22 12:00:09;;;;;;;15.55;11.18;;;10.70;46.10;;;;;;5053231;28;20196;-71
2023/01/22 12:02:58;;;;;;;15.73;11.57;;;11.10;44.50;;;;;;5055766;28;20225;-72
2023/01/22 12:05:37;;;;;;;17.88;12.00;;;11.30;43.90;;;;;;5064258;28;20213;-72
2023/01/22 12:08:25;;;;;;;14.90;11.52;;;11.50;43.30;;;;;;5057433;28;20185;-72
2023/01/22 12:11:10;;;;;;;21.70;14.20;;;12.40;42.60;;;;;;5053173;28;20593;-72
2023/01/22 12:13:54;;;;;;;12.45;10.90;;;13.30;40.20;;;;;;5058644;28;20194;-72
2023/01/22 12:16:27;;;;;;;16.80;12.90;;;14.10;39.30;;;;;;5067608;28;20275;-72
2023/01/22 12:19:24;;;;;;;17.00;14.83;;;14.50;36.90;;;;;;5066903;28;20529;-72
2023/01/22 12:22:00;;;;;;;15.20;12.93;;;14.80;35.50;;;;;;5047479;28;20528;-72
2023/01/22 12:24:33;;;;;;;14.10;11.33;;;15.00;34.80;;;;;;5064928;28;20440;-72
2023/01/22 12:27:03;;;;;;;13.87;10.30;;;14.70;33.50;;;;;;5068350;28;20443;-72
2023/01/22 12:29:35;;;;;;;13.03;9.63;;;13.70;33.50;;;;;;5052609;28;20495;-72
2023/01/22 12:32:09;;;;;;;12.80;10.73;;;12.80;34.00;;;;;;5057043;28;20818;-71
2023/01/22 12:34:44;;;;;;;19.40;11.30;;;11.80;35.30;;;;;;5056803;28;20521;-72
2023/01/22 12:37:13;;;;;;;14.68;11.38;;;10.90;36.50;;;;;;5053958;28;20266;-72
2023/01/22 12:39:50;;;;;;;13.10;11.13;;;10.20;38.50;;;;;;5056287;28;20186;-72
2023/01/22 12:42:27;;;;;;;13.05;9.95;;;9.50;39.50;;;;;;5055257;28;20182;-71
2023/01/22 12:45:05;;;;;;;13.52;10.40;;;9.00;41.00;;;;;;5052366;28;20692;-72
2023/01/22 12:47:40;;;;;;;13.82;10.80;;;8.70;42.30;;;;;;5054470;28;20235;-71
2023/01/22 12:50:17;;;;;;;18.75;11.73;;;8.50;43.10;;;;;;5051398;28;20188;-73
2023/01/22 12:52:46;;;;;;;15.45;11.40;;;8.20;44.00;;;;;;5051912;28;20192;-73
2023/01/22 12:55:30;;;;;;;13.93;10.40;;;7.90;45.00;;;;;;5051757;28;20193;-72
2023/01/22 12:57:57;;;;;;;16.90;11.50;;;7.50;45.60;;;;;;5069455;28;20229;-72